Time;durP1;ratioP1;P1;durP2;ratioP2;P2;SDS_P1;SDS_P2;PMS_P1;PMS_P2;Temp;Humidity;BMP_temperature;BMP_pressure;BME280_temperature;BME280_humidity;BME280_pressure;Samples;Min_cycle;Max_cycle;Signal;HPM_P1;HPM_P2
2021/04/15 00:01:09;;;;;;;2.15;1.85;;;24.00;56.60;;;;;;5122766;28;20047;-35
2021/04/15 00:03:35;;;;;;;2.47;1.92;;;24.00;56.60;;;;;;5122791;28;20024;-35
2021/04/15 00:06:11;;;;;;;2.97;2.20;;;24.00;56.60;;;;;;5122573;28;20116;-35
2021/04/15 00:08:37;;;;;;;2.50;2.00;;;24.00;56.80;;;;;;5104493;28;20038;-35
2021/04/15 00:11:03;;;;;;;2.63;2.00;;;24.00;56.80;;;;;;5135372;28;20059;-35
2021/04/15 00:13:38;;;;;;;2.00;1.80;;;23.90;56.80;;;;;;5122856;28;20038;-35
2021/04/15 00:16:05;;;;;;;3.03;2.10;;;23.90;56.90;;;;;;5122173;28;20023;-35
2021/04/15 00:18:31;;;;;;;2.63;1.95;;;23.90;56.90;;;;;;5122799;28;20031;-35
2021/04/15 00:20:57;;;;;;;2.67;2.00;;;23.90;56.70;;;;;;5125842;28;20020;-35
2021/04/15 00:23:23;;;;;;;3.50;2.10;;;23.90;56.90;;;;;;5127729;27;20028;-35
2021/04/15 00:25:50;;;;;;;3.22;2.03;;;23.90;56.90;;;;;;5126220;28;20035;-35
2021/04/15 00:28:16;;;;;;;2.67;2.20;;;23.80;56.90;;;;;;5126441;28;20023;-35
2021/04/15 00:30:42;;;;;;;3.35;2.30;;;23.80;56.90;;;;;;5126347;28;20031;-35
2021/04/15 00:33:10;;;;;;;2.13;1.87;;;23.80;56.80;;;;;;5107831;28;20080;-35
2021/04/15 00:35:36;;;;;;;2.20;2.00;;;23.80;56.70;;;;;;5126249;28;20464;-35
2021/04/15 00:38:04;;;;;;;3.17;2.37;;;23.80;56.70;;;;;;5131271;27;20083;-35
2021/04/15 00:40:30;;;;;;;;;;;23.80;56.80;;;;;;5135704;27;20023;-35
2021/04/15 00:42:56;;;;;;;3.00;1.90;;;23.80;56.90;;;;;;5145674;27;19907;-35
2021/04/15 00:45:24;;;;;;;3.20;2.40;;;23.80;57.00;;;;;;5146249;27;20098;-35
2021/04/15 00:48:06;;;;;;;4.45;2.40;;;23.70;57.00;;;;;;5146182;27;20015;-35
2021/04/15 00:50:50;;;;;;;2.83;2.10;;;23.70;57.00;;;;;;5128375;27;20030;-35
2021/04/15 00:53:20;;;;;;;2.28;2.08;;;23.70;57.30;;;;;;5117155;28;20407;-35
2021/04/15 00:55:46;;;;;;;2.60;2.13;;;23.70;57.30;;;;;;5125880;28;20035;-35
2021/04/15 00:58:12;;;;;;;2.28;2.08;;;23.70;57.30;;;;;;5125202;28;20039;-35
2021/04/15 01:00:39;;;;;;;3.03;2.10;;;23.60;57.30;;;;;;5107199;28;20105;-35
2021/04/15 01:03:05;;;;;;;3.08;2.15;;;23.60;57.30;;;;;;5125551;28;20054;-35
2021/04/15 01:05:39;;;;;;;2.72;1.80;;;23.60;57.40;;;;;;5107421;28;20036;-35
2021/04/15 01:08:06;;;;;;;2.55;2.00;;;23.60;57.50;;;;;;5125560;28;20031;-35
2021/04/15 01:10:33;;;;;;;3.38;1.90;;;23.60;57.40;;;;;;5136796;27;20084;-35
2021/04/15 01:13:21;;;;;;;2.47;2.05;;;23.60;57.10;;;;;;5125851;27;20065;-35
2021/04/15 01:16:01;;;;;;;3.33;2.10;;;23.60;57.30;;;;;;5107119;28;20027;-35
2021/04/15 01:18:35;;;;;;;2.10;1.90;;;23.60;57.30;;;;;;5106801;28;20028;-35
2021/04/15 01:21:10;;;;;;;2.85;2.30;;;23.60;57.20;;;;;;5107698;28;20037;-35
2021/04/15 01:23:38;;;;;;;2.38;1.92;;;23.60;57.10;;;;;;5140527;27;20029;-35
2021/04/15 01:26:25;;;;;;;3.05;2.20;;;23.50;57.20;;;;;;5104884;28;20050;-35
2021/04/15 01:28:55;;;;;;;3.45;2.40;;;23.50;57.10;;;;;;5125087;28;20031;-35
2021/04/15 01:31:56;;;;;;;3.42;2.40;;;23.50;57.30;;;;;;5124799;28;20036;-35
2021/04/15 01:34:31;;;;;;;2.30;2.10;;;23.50;57.40;;;;;;5029249;28;20049;-35
2021/04/15 01:37:38;;;;;;;3.10;2.00;;;23.50;57.40;;;;;;5025265;28;20032;-35
2021/04/15 01:40:39;;;;;;;2.35;2.05;;;23.40;57.20;;;;;;5014526;28;20041;-35
2021/04/15 01:43:05;;;;;;;2.90;2.08;;;23.40;57.50;;;;;;5016243;28;20064;-35
2021/04/15 01:45:31;;;;;;;2.75;2.10;;;23.40;57.30;;;;;;5021424;28;20068;-35
2021/04/15 01:48:09;;;;;;;3.35;2.00;;;23.40;57.40;;;;;;5005268;28;20076;-35
2021/04/15 01:50:56;;;;;;;2.75;2.05;;;23.40;57.30;;;;;;5021697;28;20033;-35
2021/04/15 01:53:52;;;;;;;2.58;1.83;;;23.30;57.20;;;;;;5027549;28;20025;-35
2021/04/15 01:56:25;;;;;;;2.33;2.13;;;23.30;57.20;;;;;;5055053;28;20030;-35
2021/04/15 01:59:07;;;;;;;3.00;1.88;;;23.30;57.10;;;;;;5040529;28;20033;-35
2021/04/15 02:01:38;;;;;;;2.67;2.25;;;23.30;57.10;;;;;;5057604;28;20064;-35
2021/04/15 02:04:05;;;;;;;3.50;2.13;;;23.30;57.20;;;;;;5040918;28;20089;-35
2021/04/15 02:06:34;;;;;;;2.67;2.05;;;23.30;57.30;;;;;;5041041;28;20037;-35
2021/04/15 02:09:05;;;;;;;2.40;1.88;;;23.30;57.30;;;;;;5057736;28;20032;-35
2021/04/15 02:11:52;;;;;;;2.38;1.85;;;23.30;57.40;;;;;;5123256;27;20059;-35
2021/04/15 02:14:20;;;;;;;2.92;2.22;;;23.20;57.20;;;;;;5105770;28;20016;-35
2021/04/15 02:16:48;;;;;;;2.47;2.00;;;23.20;57.30;;;;;;5089057;28;20030;-35
2021/04/15 02:19:23;;;;;;;4.00;2.20;;;23.20;57.30;;;;;;5111566;27;20019;-35
2021/04/15 02:22:13;;;;;;;3.22;2.10;;;23.20;57.40;;;;;;5109724;27;20023;-35
2021/04/15 02:25:01;;;;;;;2.58;1.95;;;23.20;57.20;;;;;;5088327;28;20035;-35
2021/04/15 02:28:06;;;;;;;3.47;2.00;;;23.20;57.20;;;;;;5085716;28;20028;-35
2021/04/15 02:30:48;;;;;;;2.35;1.90;;;23.20;57.10;;;;;;5102830;28;20054;-35
2021/04/15 02:33:34;;;;;;;2.58;2.25;;;23.10;57.10;;;;;;5106345;27;20117;-35
2021/04/15 02:36:02;;;;;;;2.90;2.03;;;23.10;57.00;;;;;;5109947;27;20057;-34
2021/04/15 02:38:42;;;;;;;2.10;1.90;;;23.10;57.10;;;;;;5105581;27;20027;-35
2021/04/15 02:41:08;;;;;;;2.65;2.10;;;23.10;57.20;;;;;;5101981;28;20032;-35
2021/04/15 02:43:42;;;;;;;2.55;1.83;;;23.10;57.20;;;;;;5104819;28;20042;-35
2021/04/15 02:46:23;;;;;;;2.50;1.75;;;23.10;57.30;;;;;;5105631;28;20110;-35
2021/04/15 02:48:50;;;;;;;2.22;2.03;;;23.10;57.50;;;;;;5105453;28;20032;-35
2021/04/15 02:51:23;;;;;;;4.65;2.50;;;23.00;57.40;;;;;;5105231;28;20035;-35
2021/04/15 02:54:03;;;;;;;2.70;2.10;;;23.00;57.40;;;;;;5093775;28;20020;-35
2021/04/15 02:56:35;;;;;;;4.18;2.08;;;23.00;57.30;;;;;;5123555;28;20503;-35
2021/04/15 02:59:11;;;;;;;2.75;1.88;;;23.00;57.20;;;;;;5105411;28;20034;-35
2021/04/15 03:01:39;;;;;;;2.80;1.92;;;23.00;57.20;;;;;;5089005;28;20385;-35
2021/04/15 03:04:06;;;;;;;2.90;2.08;;;23.00;57.30;;;;;;5105268;28;20035;-35
2021/04/15 03:06:32;;;;;;;2.47;1.80;;;23.00;57.20;;;;;;5084757;28;20468;-35
2021/04/15 03:09:04;;;;;;;2.70;2.07;;;23.00;57.30;;;;;;5101720;28;20039;-35
2021/04/15 03:11:43;;;;;;;2.92;1.88;;;22.90;57.20;;;;;;5090407;28;20061;-35
2021/04/15 03:14:14;;;;;;;1.92;1.83;;;22.90;57.30;;;;;;5110390;28;20109;-35
2021/04/15 03:16:43;;;;;;;2.80;2.28;;;22.90;57.30;;;;;;5113655;28;20483;-35
2021/04/15 03:19:20;;;;;;;2.78;2.05;;;22.90;57.30;;;;;;5105350;28;20023;-35
2021/04/15 03:21:54;;;;;;;2.17;1.70;;;22.90;57.30;;;;;;5107808;28;20023;-35
2021/04/15 03:24:28;;;;;;;2.35;1.80;;;22.80;57.30;;;;;;5106801;28;20038;-34
2021/04/15 03:27:13;;;;;;;3.08;2.13;;;22.80;57.30;;;;;;5108926;28;20035;-35
2021/04/15 03:29:53;;;;;;;2.50;2.30;;;22.80;58.00;;;;;;5127075;28;20563;-36
2021/04/15 03:32:40;;;;;;;2.33;2.13;;;22.80;57.40;;;;;;5109723;28;20081;-35
2021/04/15 03:35:12;;;;;;;2.55;1.90;;;22.80;57.50;;;;;;5129092;28;20024;-35
2021/04/15 03:37:45;;;;;;;3.55;1.80;;;22.80;57.50;;;;;;5127751;28;20028;-35
2021/04/15 03:40:12;;;;;;;3.00;2.00;;;22.70;57.40;;;;;;5109664;28;20020;-35
2021/04/15 03:43:00;;;;;;;2.45;2.00;;;22.80;57.50;;;;;;5084949;28;20083;-35
2021/04/15 03:45:50;;;;;;;2.88;2.10;;;22.70;57.40;;;;;;5101317;28;20051;-35
2021/04/15 03:48:25;;;;;;;2.50;1.90;;;22.70;57.40;;;;;;5101199;28;20046;-35
2021/04/15 03:50:54;;;;;;;2.63;2.05;;;22.70;57.40;;;;;;5102667;28;20035;-35
2021/04/15 03:53:27;;;;;;;2.17;1.98;;;22.70;57.50;;;;;;5117925;28;20051;-35
2021/04/15 03:55:58;;;;;;;2.78;2.08;;;22.70;57.50;;;;;;5111857;27;20510;-35
2021/04/15 03:58:29;;;;;;;2.72;2.25;;;22.70;57.50;;;;;;5107294;27;20023;-35
2021/04/15 04:01:14;;;;;;;2.45;2.03;;;22.60;57.50;;;;;;5095953;27;20038;-35
2021/04/15 04:03:40;;;;;;;2.42;1.90;;;22.60;57.50;;;;;;5128908;27;20027;-35
2021/04/15 04:06:24;;;;;;;2.53;2.10;;;22.60;57.50;;;;;;5109917;27;20055;-35
2021/04/15 04:08:58;;;;;;;2.20;1.95;;;22.60;57.50;;;;;;5147586;27;20023;-35
2021/04/15 04:11:24;;;;;;;3.00;2.45;;;22.60;57.60;;;;;;5093231;28;20031;-35
2021/04/15 04:14:05;;;;;;;2.15;1.90;;;22.60;57.60;;;;;;5143908;27;20031;-35
2021/04/15 04:16:42;;;;;;;3.75;2.00;;;22.60;57.60;;;;;;5130517;27;20015;-35
2021/04/15 04:19:14;;;;;;;2.35;2.15;;;22.60;57.70;;;;;;5107054;28;20019;-39
2021/04/15 04:21:59;;;;;;;3.45;1.90;;;22.50;57.60;;;;;;5107755;28;20038;-35
2021/04/15 04:24:32;;;;;;;2.55;2.17;;;22.50;57.60;;;;;;5106227;28;20040;-35
2021/04/15 04:27:04;;;;;;;2.85;2.30;;;22.50;57.60;;;;;;5120592;27;20039;-35
2021/04/15 04:29:36;;;;;;;2.85;2.35;;;22.50;57.70;;;;;;5122174;27;20512;-35
2021/04/15 04:32:04;;;;;;;2.70;2.20;;;22.50;57.70;;;;;;5118787;27;20146;-35
2021/04/15 04:34:30;;;;;;;2.45;2.08;;;22.50;57.70;;;;;;5109118;28;20028;-35
2021/04/15 04:36:56;;;;;;;2.92;2.08;;;22.50;57.70;;;;;;5106764;27;20102;-35
2021/04/15 04:39:22;;;;;;;2.65;2.10;;;22.40;57.70;;;;;;5097477;27;20381;-35
2021/04/15 04:42:14;;;;;;;2.03;1.75;;;22.40;57.70;;;;;;5105454;27;20041;-35
2021/04/15 04:44:52;;;;;;;2.30;1.92;;;22.40;57.80;;;;;;5119695;27;20019;-36
2021/04/15 04:47:27;;;;;;;3.38;2.05;;;22.40;58.30;;;;;;5115810;27;20019;-34
2021/04/15 04:50:03;;;;;;;3.47;2.25;;;22.40;57.80;;;;;;5110343;28;20027;-35
2021/04/15 04:52:29;;;;;;;2.50;2.10;;;22.40;57.90;;;;;;5107259;27;20023;-35
2021/04/15 04:54:56;;;;;;;2.83;2.10;;;22.40;57.80;;;;;;5072408;28;20028;-35
2021/04/15 04:57:35;;;;;;;2.40;2.00;;;22.40;57.90;;;;;;5100404;28;20123;-35
2021/04/15 05:00:27;;;;;;;2.85;2.20;;;22.30;57.90;;;;;;5107238;28;20023;-35
2021/04/15 05:02:57;;;;;;;3.05;2.00;;;22.30;57.80;;;;;;5128250;27;20027;-40
2021/04/15 05:05:28;;;;;;;2.55;1.90;;;22.40;57.90;;;;;;5123266;27;20031;-35
2021/04/15 05:07:59;;;;;;;2.60;2.20;;;22.30;57.90;;;;;;5132261;27;20031;-35
2021/04/15 05:10:26;;;;;;;2.47;2.08;;;22.30;58.00;;;;;;5117281;28;20087;-35
2021/04/15 05:12:58;;;;;;;2.45;2.00;;;22.30;58.00;;;;;;5097418;27;20058;-35
2021/04/15 05:15:25;;;;;;;2.35;2.15;;;22.30;58.00;;;;;;5105056;28;20024;-35
2021/04/15 05:17:51;;;;;;;2.28;1.90;;;22.30;58.00;;;;;;5121984;27;20376;-35
2021/04/15 05:20:20;;;;;;;2.35;2.15;;;22.30;58.10;;;;;;5146120;27;20031;-35
2021/04/15 05:23:06;;;;;;;2.70;2.00;;;22.30;58.10;;;;;;5088956;28;20036;-35
2021/04/15 05:25:33;;;;;;;2.53;2.20;;;22.20;58.00;;;;;;5107149;28;20070;-35
2021/04/15 05:27:59;;;;;;;2.67;1.83;;;22.20;58.00;;;;;;5133478;27;20023;-35
2021/04/15 05:30:34;;;;;;;3.05;2.20;;;22.20;58.00;;;;;;5110408;27;20030;-35
2021/04/15 05:33:01;;;;;;;2.28;2.03;;;22.20;58.00;;;;;;5125995;27;20022;-35
2021/04/15 05:35:37;;;;;;;3.25;2.47;;;22.20;58.00;;;;;;5110069;27;20023;-34
2021/04/15 05:38:07;;;;;;;2.60;2.13;;;22.20;58.00;;;;;;5094822;28;20020;-35
2021/04/15 05:40:35;;;;;;;2.15;1.88;;;22.20;58.10;;;;;;5117201;27;20042;-35
2021/04/15 05:43:09;;;;;;;2.53;2.13;;;22.10;58.20;;;;;;5095871;27;20058;-35
2021/04/15 05:45:35;;;;;;;2.65;2.30;;;22.20;58.00;;;;;;5125723;27;20035;-34
2021/04/15 05:48:06;;;;;;;2.72;2.00;;;22.10;58.10;;;;;;5100675;27;20102;-35
2021/04/15 05:50:44;;;;;;;2.88;2.17;;;22.10;58.10;;;;;;5089303;28;20027;-34
2021/04/15 05:53:19;;;;;;;2.58;2.30;;;22.10;58.10;;;;;;5102559;27;20681;-35
2021/04/15 05:56:05;;;;;;;2.72;2.10;;;22.10;58.10;;;;;;5105179;27;20042;-35
2021/04/15 05:58:43;;;;;;;2.25;2.05;;;22.10;58.10;;;;;;5126146;27;20377;-35
2021/04/15 06:01:21;;;;;;;3.25;2.10;;;22.10;58.10;;;;;;5106342;28;20087;-35
2021/04/15 06:04:37;;;;;;;2.90;1.92;;;22.10;58.00;;;;;;5105837;28;20019;-35
2021/04/15 06:07:04;;;;;;;2.40;2.03;;;22.10;58.00;;;;;;5130920;27;20095;-35
2021/04/15 06:09:30;;;;;;;2.50;2.30;;;22.10;58.20;;;;;;5142070;27;20028;-34
2021/04/15 06:12:20;;;;;;;2.83;2.20;;;22.00;58.20;;;;;;5105992;28;20047;-34
2021/04/15 06:14:58;;;;;;;2.63;2.33;;;22.00;58.20;;;;;;5108977;28;20043;-34
2021/04/15 06:17:28;;;;;;;2.70;2.25;;;22.00;58.20;;;;;;5108591;27;20126;-36
2021/04/15 06:20:14;;;;;;;2.60;2.30;;;22.00;58.20;;;;;;5086043;27;20024;-35
2021/04/15 06:22:45;;;;;;;3.22;2.33;;;22.00;58.20;;;;;;5108814;28;20023;-35
2021/04/15 06:25:28;;;;;;;2.78;2.28;;;21.90;58.80;;;;;;5089307;28;20019;-35
2021/04/15 06:27:57;;;;;;;2.70;2.28;;;21.90;58.10;;;;;;5107091;28;20087;-36
2021/04/15 06:30:26;;;;;;;2.75;2.03;;;21.90;58.30;;;;;;5089422;28;20016;-34
2021/04/15 06:32:59;;;;;;;2.20;2.00;;;21.90;58.20;;;;;;5088856;28;20036;-35
2021/04/15 06:35:30;;;;;;;2.70;2.30;;;21.90;58.20;;;;;;5109747;27;20024;-34
2021/04/15 06:38:32;;;;;;;2.28;2.08;;;21.90;58.20;;;;;;5126131;27;20027;-35
2021/04/15 06:41:37;;;;;;;2.20;2.00;;;21.90;58.20;;;;;;5113638;28;20547;-35
2021/04/15 06:44:13;;;;;;;2.75;2.30;;;21.90;58.30;;;;;;5123742;28;20030;-35
2021/04/15 06:47:20;;;;;;;2.65;2.20;;;21.90;58.30;;;;;;5106130;28;20035;-35
2021/04/15 06:49:49;;;;;;;2.17;2.00;;;21.80;58.20;;;;;;5094936;28;20042;-35
2021/04/15 06:52:23;;;;;;;2.63;2.25;;;21.80;58.30;;;;;;5123804;28;20027;-35
2021/04/15 06:54:55;;;;;;;2.78;2.20;;;21.80;58.20;;;;;;5105973;28;20376;-35
2021/04/15 06:57:52;;;;;;;2.60;2.03;;;21.80;58.30;;;;;;5123864;28;20037;-34
2021/04/15 07:00:34;;;;;;;2.75;2.08;;;21.80;58.30;;;;;;5139586;27;20073;-34
2021/04/15 07:03:09;;;;;;;2.15;1.95;;;21.80;58.30;;;;;;5105978;28;20022;-35
2021/04/15 07:05:47;;;;;;;4.15;2.17;;;21.80;58.30;;;;;;5128845;27;20041;-35
2021/04/15 07:08:32;;;;;;;;;;;21.70;58.30;;;;;;5110013;27;20054;-35
2021/04/15 07:11:00;;;;;;;2.35;2.13;;;21.70;58.30;;;;;;5128608;28;19930;-35
2021/04/15 07:14:01;;;;;;;3.15;2.10;;;21.70;58.50;;;;;;5123000;28;20027;-36
2021/04/15 07:17:06;;;;;;;3.05;2.33;;;21.70;58.30;;;;;;5085140;28;20544;-35
2021/04/15 07:19:39;;;;;;;3.05;2.17;;;21.70;58.40;;;;;;5087865;28;20076;-35
2021/04/15 07:22:43;;;;;;;2.35;2.08;;;21.70;58.50;;;;;;5089461;28;20026;-35
2021/04/15 07:25:18;;;;;;;2.45;2.25;;;21.60;58.30;;;;;;5060008;28;20044;-34
2021/04/15 07:28:06;;;;;;;2.72;2.20;;;21.70;58.40;;;;;;5044333;28;20044;-34
2021/04/15 07:30:56;;;;;;;2.58;2.05;;;21.60;58.40;;;;;;5066409;28;20041;-35
2021/04/15 07:33:43;;;;;;;2.67;2.30;;;21.60;58.40;;;;;;5066246;28;20125;-35
2021/04/15 07:36:37;;;;;;;2.47;1.92;;;21.60;58.30;;;;;;5041334;28;20072;-35
2021/04/15 07:39:27;;;;;;;2.97;2.40;;;21.60;58.50;;;;;;5050268;28;20615;-35
2021/04/15 07:42:21;;;;;;;2.42;2.05;;;21.60;58.60;;;;;;5028195;28;20108;-35
2021/04/15 07:44:52;;;;;;;3.28;2.55;;;21.60;58.60;;;;;;5042886;28;20025;-35
2021/04/15 07:47:26;;;;;;;2.33;2.10;;;21.60;58.40;;;;;;5059967;28;20038;-34
2021/04/15 07:49:55;;;;;;;3.13;2.28;;;21.60;58.50;;;;;;5044240;28;20029;-34
2021/04/15 07:52:58;;;;;;;2.70;2.30;;;21.60;58.60;;;;;;5046618;28;20041;-35
2021/04/15 07:55:40;;;;;;;2.85;2.20;;;21.50;58.40;;;;;;5064023;28;20064;-35
2021/04/15 07:58:44;;;;;;;2.72;2.08;;;21.50;58.50;;;;;;5053477;27;20040;-34
2021/04/15 08:01:37;;;;;;;3.45;2.50;;;21.50;58.50;;;;;;5147907;27;20016;-34
2021/04/15 08:04:23;;;;;;;2.55;2.20;;;21.50;58.60;;;;;;5129296;27;20466;-35
2021/04/15 08:07:34;;;;;;;2.65;2.13;;;21.50;58.60;;;;;;5131644;27;20051;-34
2021/04/15 08:10:37;;;;;;;3.45;2.47;;;21.50;58.70;;;;;;5059395;28;20029;-34
2021/04/15 08:13:30;;;;;;;2.45;1.92;;;21.50;58.70;;;;;;5043228;28;20060;-34
2021/04/15 08:16:09;;;;;;;2.40;2.20;;;21.50;58.70;;;;;;5043623;28;20028;-35
2021/04/15 08:18:41;;;;;;;2.83;2.33;;;21.50;58.70;;;;;;5043527;28;20029;-35
2021/04/15 08:21:44;;;;;;;2.38;2.17;;;21.50;58.90;;;;;;5027997;28;20029;-35
2021/04/15 08:24:33;;;;;;;2.97;2.50;;;21.50;58.80;;;;;;4996823;28;20042;-35
2021/04/15 08:27:11;;;;;;;2.50;2.30;;;21.40;58.80;;;;;;5013084;28;20046;-34
2021/04/15 08:29:40;;;;;;;;;;;21.40;58.80;;;;;;4996876;28;20023;-35
2021/04/15 08:32:12;;;;;;;3.33;2.08;;;21.40;58.90;;;;;;4996330;28;19913;-34
2021/04/15 08:35:11;;;;;;;3.67;2.67;;;21.40;58.80;;;;;;4995979;28;20050;-34
2021/04/15 08:38:00;;;;;;;2.50;2.30;;;21.40;58.80;;;;;;5010005;28;20125;-35
2021/04/15 08:40:47;;;;;;;3.08;2.20;;;21.40;58.80;;;;;;4979600;28;20046;-34
2021/04/15 08:43:16;;;;;;;3.08;2.40;;;21.40;58.90;;;;;;5009578;28;20060;-35
2021/04/15 08:46:11;;;;;;;3.83;2.53;;;21.40;58.80;;;;;;5074995;28;20040;-34
2021/04/15 08:49:09;;;;;;;2.72;2.20;;;21.40;58.90;;;;;;5059649;28;20043;-34
2021/04/15 08:52:03;;;;;;;2.38;2.17;;;21.40;58.90;;;;;;5067560;28;20071;-34
2021/04/15 08:54:58;;;;;;;2.35;2.15;;;21.30;58.90;;;;;;5049612;28;20554;-35
2021/04/15 08:57:35;;;;;;;2.50;2.30;;;21.30;59.00;;;;;;5073709;28;20039;-35
2021/04/15 09:00:26;;;;;;;2.88;2.33;;;21.30;59.00;;;;;;5107264;28;20032;-35
2021/04/15 09:03:12;;;;;;;4.20;2.45;;;21.30;59.10;;;;;;5109024;28;20039;-34
2021/04/15 09:06:16;;;;;;;2.50;2.30;;;21.30;59.10;;;;;;5093898;28;20051;-35
2021/04/15 09:09:20;;;;;;;2.60;2.13;;;21.30;59.10;;;;;;5125731;28;20032;-35
2021/04/15 09:11:58;;;;;;;2.50;2.30;;;21.30;59.10;;;;;;5105397;28;20052;-35
2021/04/15 09:14:54;;;;;;;2.22;2.03;;;21.30;59.20;;;;;;5103480;28;20046;-35
2021/04/15 09:17:54;;;;;;;2.72;2.47;;;21.20;59.00;;;;;;5062172;28;20058;-35
2021/04/15 09:20:47;;;;;;;3.42;2.33;;;21.20;59.10;;;;;;5082771;28;20036;-35
2021/04/15 09:23:36;;;;;;;2.83;1.92;;;21.20;59.10;;;;;;5128744;27;20080;-35
2021/04/15 09:26:20;;;;;;;;;;;21.20;59.10;;;;;;5130943;27;20042;-34
2021/04/15 09:29:06;;;;;;;2.28;2.08;;;21.20;59.20;;;;;;5145957;27;20406;-34
2021/04/15 09:31:51;;;;;;;2.38;2.17;;;21.20;59.30;;;;;;5145908;27;20035;-35
2021/04/15 09:34:23;;;;;;;2.22;2.00;;;21.20;59.30;;;;;;5127498;27;20026;-35
2021/04/15 09:37:27;;;;;;;2.40;2.10;;;21.20;59.40;;;;;;5146005;27;20050;-35
2021/04/15 09:40:11;;;;;;;2.08;1.88;;;21.20;59.30;;;;;;5139930;27;20110;-35
2021/04/15 09:42:56;;;;;;;2.40;2.13;;;21.20;59.40;;;;;;5106992;28;20048;-35
2021/04/15 09:45:43;;;;;;;2.58;2.28;;;21.10;59.30;;;;;;5142898;27;20036;-34
2021/04/15 09:48:41;;;;;;;2.50;2.30;;;21.10;59.40;;;;;;5129534;27;20027;-35
2021/04/15 09:51:13;;;;;;;2.05;1.85;;;21.10;59.30;;;;;;5115099;27;20024;-34
2021/04/15 09:53:54;;;;;;;3.03;2.20;;;21.10;59.30;;;;;;5129452;27;20132;-34
2021/04/15 09:56:39;;;;;;;2.28;2.08;;;21.10;59.30;;;;;;5128599;27;20035;-34
2021/04/15 09:59:36;;;;;;;2.63;2.40;;;21.10;59.30;;;;;;5129323;27;20057;-35
2021/04/15 10:02:46;;;;;;;2.30;2.10;;;21.10;59.40;;;;;;5129090;27;20023;-34
2021/04/15 10:05:34;;;;;;;;;;;21.10;59.40;;;;;;5109383;27;20039;-34
2021/04/15 10:08:02;;;;;;;2.33;1.98;;;21.10;59.30;;;;;;5129555;27;19903;-35
2021/04/15 10:10:32;;;;;;;2.40;2.20;;;21.00;59.40;;;;;;5111352;27;20040;-34
2021/04/15 10:13:02;;;;;;;2.53;2.33;;;21.00;59.40;;;;;;5106165;27;20105;-35
2021/04/15 10:15:33;;;;;;;2.95;2.30;;;21.00;59.40;;;;;;5129964;27;20046;-35
2021/04/15 10:18:14;;;;;;;2.22;2.00;;;21.10;59.40;;;;;;5111720;27;20044;-35
2021/04/15 10:21:16;;;;;;;2.40;2.20;;;21.00;59.30;;;;;;5107358;27;20023;-34
2021/04/15 10:24:07;;;;;;;2.25;2.00;;;21.00;59.30;;;;;;5096631;28;20146;-35
2021/04/15 10:27:04;;;;;;;2.03;1.83;;;21.00;59.40;;;;;;5109053;28;20087;-35
2021/04/15 10:30:08;;;;;;;2.38;2.17;;;21.00;59.40;;;;;;5106723;28;20027;-36
2021/04/15 10:33:07;;;;;;;2.30;1.65;;;21.10;59.40;;;;;;5124342;28;20049;-35
2021/04/15 10:35:56;;;;;;;2.58;2.03;;;21.00;59.40;;;;;;5124482;28;20523;-35
2021/04/15 10:38:31;;;;;;;;;;;21.00;59.50;;;;;;5106102;28;20031;-34
2021/04/15 10:41:45;;;;;;;2.30;2.00;;;21.00;59.60;;;;;;5155379;27;19998;-35
2021/04/15 10:44:42;;;;;;;2.40;2.10;;;20.90;59.50;;;;;;5060646;28;20418;-35
2021/04/15 10:47:41;;;;;;;1.80;1.70;;;21.00;59.70;;;;;;5060476;28;20033;-34
2021/04/15 10:50:25;;;;;;;2.25;1.90;;;20.90;59.60;;;;;;5060327;28;20025;-35
2021/04/15 10:53:05;;;;;;;2.20;2.00;;;20.90;59.70;;;;;;5040516;28;20029;-35
2021/04/15 10:55:34;;;;;;;3.28;2.17;;;20.90;59.70;;;;;;5040760;28;20063;-35
2021/04/15 10:58:20;;;;;;;2.08;1.77;;;20.90;59.70;;;;;;5040541;28;20033;-35
2021/04/15 11:00:46;;;;;;;2.60;2.25;;;21.00;59.80;;;;;;5058860;28;20122;-35
2021/04/15 11:03:16;;;;;;;2.20;2.00;;;20.90;59.80;;;;;;5060001;28;20148;-34
2021/04/15 11:05:49;;;;;;;2.35;1.88;;;20.90;59.80;;;;;;5060448;28;20059;-34
2021/04/15 11:08:25;;;;;;;2.10;1.88;;;20.90;59.70;;;;;;5060536;28;20041;-35
2021/04/15 11:11:09;;;;;;;2.42;2.22;;;20.90;59.90;;;;;;5046190;28;20079;-35
2021/04/15 11:13:35;;;;;;;1.90;1.73;;;20.90;59.70;;;;;;5040469;28;20046;-36
2021/04/15 11:16:03;;;;;;;2.15;1.80;;;20.90;59.80;;;;;;5040248;28;20522;-34
2021/04/15 11:18:35;;;;;;;2.60;1.90;;;20.90;59.70;;;;;;5024180;28;20054;-34
2021/04/15 11:21:25;;;;;;;1.88;1.70;;;20.90;59.80;;;;;;5084063;28;20067;-34
2021/04/15 11:23:54;;;;;;;2.08;1.88;;;20.90;59.70;;;;;;5103155;28;20028;-34
2021/04/15 11:26:47;;;;;;;2.00;1.80;;;20.90;59.80;;;;;;5123313;28;20085;-35
2021/04/15 11:29:42;;;;;;;2.22;2.03;;;20.90;59.90;;;;;;5107391;28;20039;-35
2021/04/15 11:32:39;;;;;;;1.70;1.52;;;20.80;59.80;;;;;;5123414;28;20027;-35
2021/04/15 11:35:11;;;;;;;2.58;1.75;;;20.80;59.90;;;;;;5123422;28;20045;-35
2021/04/15 11:37:38;;;;;;;2.00;1.80;;;20.80;60.00;;;;;;5123497;28;20030;-34
2021/04/15 11:40:22;;;;;;;;;;;20.80;59.90;;;;;;5105383;28;20079;-34
2021/04/15 11:42:49;;;;;;;1.60;1.50;;;20.80;60.00;;;;;;5123257;28;19907;-35
2021/04/15 11:45:33;;;;;;;1.95;1.75;;;20.80;60.00;;;;;;5123424;28;20031;-35
2021/04/15 11:48:19;;;;;;;1.92;1.50;;;20.80;60.30;;;;;;5105268;28;20446;-34
2021/04/15 11:50:49;;;;;;;2.00;1.60;;;20.80;60.20;;;;;;5122857;28;20051;-34
2021/04/15 11:53:42;;;;;;;1.90;1.60;;;20.80;60.10;;;;;;5115105;28;20023;-39
2021/04/15 11:56:32;;;;;;;1.75;1.60;;;20.70;60.00;;;;;;5106033;28;20039;-35
2021/04/15 11:59:16;;;;;;;1.77;1.67;;;20.80;60.00;;;;;;5110175;28;20024;-34
2021/04/15 12:01:43;;;;;;;2.17;1.63;;;20.70;60.20;;;;;;5122903;28;20122;-35
2021/04/15 12:04:14;;;;;;;2.07;1.87;;;20.70;60.00;;;;;;5104581;28;20032;-35
2021/04/15 12:06:41;;;;;;;2.55;1.77;;;20.70;60.70;;;;;;5122422;28;20112;-35
2021/04/15 12:09:10;;;;;;;1.70;1.60;;;20.70;60.10;;;;;;5088052;28;20031;-35
2021/04/15 12:11:37;;;;;;;1.98;1.77;;;20.70;60.00;;;;;;5084145;28;20052;-35
2021/04/15 12:14:10;;;;;;;2.47;1.75;;;20.70;60.10;;;;;;5093673;28;20016;-35
2021/04/15 12:16:58;;;;;;;1.65;1.48;;;20.70;60.10;;;;;;5107101;28;20031;-35
2021/04/15 12:19:35;;;;;;;2.30;1.83;;;20.70;60.30;;;;;;5108145;28;20468;-35
2021/04/15 12:22:13;;;;;;;1.58;1.48;;;20.70;60.30;;;;;;5107194;28;20082;-34
2021/04/15 12:24:53;;;;;;;2.80;1.85;;;20.70;60.30;;;;;;5105904;28;20119;-35
2021/04/15 12:27:31;;;;;;;1.85;1.65;;;20.70;60.40;;;;;;5088162;28;20024;-35
2021/04/15 12:30:03;;;;;;;2.13;1.50;;;20.70;60.30;;;;;;5127636;27;20019;-35
2021/04/15 12:32:50;;;;;;;1.70;1.50;;;20.60;60.40;;;;;;5108046;28;20050;-35
2021/04/15 12:35:53;;;;;;;1.55;1.40;;;20.60;60.40;;;;;;5108188;28;20054;-34
2021/04/15 12:39:02;;;;;;;2.00;1.80;;;20.70;60.30;;;;;;5126535;28;20024;-35
2021/04/15 12:41:28;;;;;;;2.45;1.70;;;20.60;60.30;;;;;;5094676;28;20032;-34
2021/04/15 12:44:10;;;;;;;1.88;1.70;;;20.60;60.50;;;;;;5105837;28;20047;-34
2021/04/15 12:46:36;;;;;;;1.60;1.50;;;20.70;60.40;;;;;;5087581;28;20054;-34
2021/04/15 12:49:05;;;;;;;1.77;1.67;;;20.60;60.40;;;;;;5087594;28;20028;-34
2021/04/15 12:51:42;;;;;;;1.70;1.60;;;20.60;60.40;;;;;;5105318;28;20031;-34
2021/04/15 12:54:22;;;;;;;1.50;1.40;;;20.60;60.40;;;;;;5126141;27;20023;-35
2021/04/15 12:56:56;;;;;;;2.30;1.60;;;20.60;60.40;;;;;;5129672;27;20672;-35
2021/04/15 12:59:53;;;;;;;1.92;1.73;;;20.60;60.60;;;;;;5138821;27;20551;-34
2021/04/15 13:02:22;;;;;;;1.73;1.63;;;20.60;60.50;;;;;;5102906;27;20055;-35
2021/04/15 13:04:54;;;;;;;1.60;1.50;;;20.60;60.70;;;;;;5098162;27;20027;-34
2021/04/15 13:07:26;;;;;;;1.52;1.42;;;20.60;60.60;;;;;;5117888;27;20572;-34
2021/04/15 13:09:54;;;;;;;1.50;1.40;;;20.60;60.70;;;;;;5122443;27;20031;-34
2021/04/15 13:12:23;;;;;;;1.95;1.50;;;20.60;60.70;;;;;;5119815;27;20047;-34
2021/04/15 13:14:53;;;;;;;1.90;1.70;;;20.60;60.70;;;;;;5122348;27;20023;-34
2021/04/15 13:17:35;;;;;;;1.70;1.60;;;20.60;60.70;;;;;;5103453;27;20052;-35
2021/04/15 13:20:21;;;;;;;1.60;1.50;;;20.60;60.50;;;;;;5122321;27;20399;-34
2021/04/15 13:23:18;;;;;;;1.55;1.45;;;20.50;60.60;;;;;;5117285;27;20073;-35
2021/04/15 13:25:53;;;;;;;1.85;1.63;;;20.60;60.60;;;;;;5125133;27;20023;-35
2021/04/15 13:28:20;;;;;;;2.30;1.70;;;20.50;60.50;;;;;;5123949;27;20076;-35
2021/04/15 13:30:46;;;;;;;;;;;20.50;60.40;;;;;;5127863;27;20023;-35
2021/04/15 13:33:42;;;;;;;1.73;1.60;;;20.50;60.80;;;;;;5125377;28;19914;-34
2021/04/15 13:36:09;;;;;;;1.73;1.60;;;20.50;60.50;;;;;;5090303;28;20038;-35
2021/04/15 13:38:37;;;;;;;1.65;1.55;;;20.50;60.60;;;;;;5125173;28;20020;-35
2021/04/15 13:41:24;;;;;;;1.70;1.60;;;20.50;60.70;;;;;;5140903;27;20039;-34
2021/04/15 13:44:04;;;;;;;1.77;1.63;;;20.50;60.70;;;;;;5145235;27;20122;-34
2021/04/15 13:46:34;;;;;;;1.58;1.48;;;20.50;61.10;;;;;;5111326;27;20024;-35
2021/04/15 13:49:12;;;;;;;1.50;1.30;;;20.50;60.80;;;;;;5145353;27;20058;-35